Time;durP1;ratioP1;P1;durP2;ratioP2;P2;SDS_P1;SDS_P2;PMS_P1;PMS_P2;Temp;Humidity;BMP_temperature;BMP_pressure;BME280_temperature;BME280_humidity;BME280_pressure;Samples;Min_cycle;Max_cycle;Signal;HPM_P1;HPM_P2
2022/10/11 00:01:36;;;;;;;7.30;2.03;;;8.00;99.90;;;;;;5022688;28;20048;-76
2022/10/11 00:04:02;;;;;;;10.27;2.15;;;8.00;99.90;;;;;;5006323;28;20456;-76
2022/10/11 00:06:28;;;;;;;10.60;1.92;;;8.10;99.90;;;;;;5022368;28;20056;-76
2022/10/11 00:08:53;;;;;;;9.80;2.08;;;8.00;99.90;;;;;;5005573;28;20041;-76
2022/10/11 00:11:19;;;;;;;6.45;1.80;;;7.90;99.90;;;;;;4989020;28;20037;-76
2022/10/11 00:13:44;;;;;;;7.25;1.98;;;7.90;99.90;;;;;;5004263;28;20049;-76
2022/10/11 00:16:10;;;;;;;10.23;1.75;;;7.90;99.90;;;;;;5022703;28;20065;-76
2022/10/11 00:18:36;;;;;;;10.70;2.10;;;7.80;99.90;;;;;;4990427;28;20034;-76
2022/10/11 00:21:03;;;;;;;9.13;2.10;;;7.80;99.90;;;;;;5022297;28;20440;-76
2022/10/11 00:23:28;;;;;;;6.80;1.70;;;7.70;99.90;;;;;;5005498;28;20049;-76
2022/10/11 00:25:58;;;;;;;10.70;2.40;;;7.70;99.90;;;;;;5023844;28;20091;-76
2022/10/11 00:28:23;;;;;;;5.72;1.58;;;7.70;99.90;;;;;;5005332;28;20114;-76
2022/10/11 00:30:49;;;;;;;10.23;2.05;;;7.70;99.90;;;;;;5005858;28;20412;-75
2022/10/11 00:33:14;;;;;;;7.90;2.42;;;7.60;99.90;;;;;;5022612;28;20515;-75
2022/10/11 00:35:40;;;;;;;10.45;3.17;;;7.60;99.90;;;;;;5005255;28;20034;-75
2022/10/11 00:38:06;;;;;;;7.13;1.63;;;7.50;99.90;;;;;;5021662;28;20041;-75
2022/10/11 00:40:32;;;;;;;5.40;2.20;;;7.50;99.90;;;;;;5022174;28;20053;-75
2022/10/11 00:42:57;;;;;;;12.52;2.70;;;7.50;99.90;;;;;;5023763;28;20993;-75
2022/10/11 00:45:25;;;;;;;12.70;2.80;;;7.40;99.90;;;;;;4988124;28;20149;-75
2022/10/11 00:47:59;;;;;;;8.55;2.10;;;7.50;99.90;;;;;;5023134;28;20040;-75
2022/10/11 00:50:25;;;;;;;10.20;2.30;;;7.40;99.90;;;;;;5004779;28;20188;-75
2022/10/11 00:52:55;;;;;;;12.43;2.70;;;7.40;99.90;;;;;;5021114;28;20113;-74
2022/10/11 00:55:21;;;;;;;10.07;2.35;;;7.40;99.90;;;;;;4989700;28;20029;-74
2022/10/11 00:57:47;;;;;;;16.27;3.08;;;7.40;99.90;;;;;;4995122;28;20039;-74
2022/10/11 01:00:13;;;;;;;8.63;2.70;;;7.30;99.90;;;;;;5009621;28;20557;-74
2022/10/11 01:02:39;;;;;;;13.52;2.80;;;7.10;99.90;;;;;;5009203;28;20036;-74
2022/10/11 01:05:05;;;;;;;15.60;2.67;;;7.10;99.90;;;;;;5026023;28;20037;-74
2022/10/11 01:07:31;;;;;;;9.57;3.00;;;7.10;99.90;;;;;;5008452;28;20176;-74
2022/10/11 01:09:57;;;;;;;8.60;2.78;;;7.10;99.90;;;;;;5007337;28;20124;-74
2022/10/11 01:12:24;;;;;;;9.23;2.83;;;7.10;99.90;;;;;;5024176;28;20481;-74
2022/10/11 01:15:02;;;;;;;8.25;3.05;;;7.10;99.90;;;;;;4991495;28;20471;-75
2022/10/11 01:17:31;;;;;;;10.25;2.17;;;7.10;99.90;;;;;;4998769;28;20043;-75
2022/10/11 01:20:26;;;;;;;11.27;2.22;;;7.20;99.90;;;;;;5025477;28;20397;-74
2022/10/11 01:23:11;;;;;;;11.80;2.03;;;7.30;99.90;;;;;;5024542;28;20029;-75
2022/10/11 01:25:45;;;;;;;14.30;2.50;;;7.10;99.90;;;;;;4993917;28;20029;-75
2022/10/11 01:28:50;;;;;;;9.63;2.20;;;7.00;99.90;;;;;;4989716;28;20061;-75
2022/10/11 01:31:41;;;;;;;13.25;2.40;;;7.00;99.90;;;;;;4948937;28;20049;-75
2022/10/11 01:34:10;;;;;;;10.02;3.05;;;7.00;99.90;;;;;;4964314;28;20141;-74
2022/10/11 01:36:41;;;;;;;8.93;2.55;;;7.00;99.90;;;;;;5012299;28;20328;-74
2022/10/11 01:39:27;;;;;;;13.35;4.00;;;6.80;99.90;;;;;;5025731;28;20029;-74
2022/10/11 01:41:54;;;;;;;14.75;2.75;;;6.80;99.90;;;;;;5007654;28;20022;-74
2022/10/11 01:44:19;;;;;;;10.98;3.22;;;6.80;99.90;;;;;;5006176;28;20065;-75
2022/10/11 01:46:45;;;;;;;7.40;2.30;;;6.80;99.90;;;;;;5008351;28;20611;-76
2022/10/11 01:49:10;;;;;;;6.25;2.53;;;6.80;99.90;;;;;;5000830;28;20038;-75
2022/10/11 01:51:41;;;;;;;11.65;2.92;;;6.80;99.90;;;;;;5025745;28;20377;-75
2022/10/11 01:54:15;;;;;;;15.35;3.20;;;6.70;99.90;;;;;;5008911;28;20033;-75
2022/10/11 01:57:03;;;;;;;13.43;2.92;;;6.60;99.90;;;;;;5014513;28;20120;-75
2022/10/11 01:59:41;;;;;;;12.55;2.67;;;6.50;99.90;;;;;;5018200;28;20039;-75
2022/10/11 02:02:22;;;;;;;10.13;3.38;;;6.40;99.90;;;;;;5009306;28;20029;-75
2022/10/11 02:04:50;;;;;;;7.18;2.97;;;6.60;99.90;;;;;;5025503;28;20048;-75
2022/10/11 02:07:43;;;;;;;7.13;2.25;;;6.60;99.90;;;;;;5025619;28;20079;-76
2022/10/11 02:10:17;;;;;;;9.60;2.28;;;6.70;99.90;;;;;;5006732;28;20561;-75
2022/10/11 02:12:48;;;;;;;12.90;2.97;;;6.70;99.90;;;;;;5021577;28;20504;-75
2022/10/11 02:15:13;;;;;;;5.85;2.00;;;6.60;99.90;;;;;;5008604;28;20036;-75
2022/10/11 02:17:42;;;;;;;15.43;3.45;;;6.60;99.90;;;;;;4984730;28;20033;-75
2022/10/11 02:20:11;;;;;;;5.50;2.20;;;6.50;99.90;;;;;;5009554;28;20116;-76
2022/10/11 02:22:37;;;;;;;5.88;3.30;;;6.50;99.90;;;;;;4990980;28;20396;-75
2022/10/11 02:25:06;;;;;;;8.30;3.10;;;6.50;99.90;;;;;;5004886;28;20712;-75
2022/10/11 02:27:32;;;;;;;11.05;3.95;;;6.40;99.90;;;;;;5009702;28;20397;-75
2022/10/11 02:29:59;;;;;;;12.32;3.03;;;6.30;99.90;;;;;;5007960;28;20076;-75
2022/10/11 02:32:25;;;;;;;14.85;3.85;;;6.20;99.90;;;;;;5024779;28;20029;-75
2022/10/11 02:34:52;;;;;;;13.95;3.58;;;6.30;99.90;;;;;;5023823;28;20029;-75
2022/10/11 02:37:36;;;;;;;16.23;4.10;;;6.30;99.90;;;;;;4991739;28;20029;-75
2022/10/11 02:40:12;;;;;;;11.60;3.40;;;6.20;99.90;;;;;;5005456;28;20385;-75
2022/10/11 02:42:50;;;;;;;18.15;4.05;;;6.10;99.90;;;;;;5024735;28;20025;-75
2022/10/11 02:45:17;;;;;;;6.00;3.33;;;6.00;99.90;;;;;;5008662;28;20044;-75
2022/10/11 02:47:43;;;;;;;10.73;4.30;;;5.90;99.90;;;;;;4991461;28;20497;-75
2022/10/11 02:50:10;;;;;;;11.13;3.95;;;5.80;99.90;;;;;;4991448;28;20028;-75
2022/10/11 02:52:36;;;;;;;13.65;2.97;;;6.00;99.90;;;;;;5023200;28;20033;-75
2022/10/11 02:55:01;;;;;;;6.60;3.88;;;6.00;99.90;;;;;;4991677;28;20478;-74
2022/10/11 02:57:27;;;;;;;10.02;3.25;;;6.00;99.90;;;;;;5024300;28;20013;-76
2022/10/11 02:59:52;;;;;;;6.72;3.00;;;6.00;99.90;;;;;;5023698;28;20029;-75
2022/10/11 03:02:18;;;;;;;7.93;2.92;;;6.00;99.90;;;;;;5006914;28;20026;-75
2022/10/11 03:04:44;;;;;;;6.78;2.85;;;6.00;99.90;;;;;;5023237;28;20045;-75
2022/10/11 03:07:10;;;;;;;3.92;2.42;;;6.00;99.90;;;;;;5007159;28;20467;-75
2022/10/11 03:09:36;;;;;;;7.50;2.22;;;6.00;99.90;;;;;;5022912;28;20037;-75
2022/10/11 03:12:01;;;;;;;10.82;3.63;;;6.00;99.90;;;;;;5020851;28;20401;-76
2022/10/11 03:14:27;;;;;;;13.40;3.92;;;6.00;99.90;;;;;;5022111;28;20507;-76
2022/10/11 03:16:53;;;;;;;9.02;4.65;;;6.00;99.90;;;;;;5008792;28;20029;-76
2022/10/11 03:19:18;;;;;;;7.85;3.58;;;6.00;99.90;;;;;;5005840;28;20088;-75
2022/10/11 03:21:44;;;;;;;10.43;4.20;;;6.10;99.90;;;;;;4990241;28;20025;-75
2022/10/11 03:24:09;;;;;;;14.95;3.92;;;6.00;99.90;;;;;;5006253;28;20088;-75
2022/10/11 03:26:35;;;;;;;10.93;4.72;;;5.90;99.90;;;;;;5007135;28;20374;-76
2022/10/11 03:29:01;;;;;;;10.32;4.30;;;5.80;99.90;;;;;;5006819;28;20485;-75
2022/10/11 03:31:26;;;;;;;8.68;4.07;;;5.70;99.90;;;;;;5022947;28;20029;-75
2022/10/11 03:33:52;;;;;;;10.50;4.50;;;5.70;99.90;;;;;;5023136;28;20040;-75
2022/10/11 03:36:17;;;;;;;11.65;3.53;;;5.80;99.90;;;;;;5001341;28;20040;-75
2022/10/11 03:38:43;;;;;;;14.68;4.95;;;5.80;99.90;;;;;;5006379;28;20063;-75
2022/10/11 03:41:08;;;;;;;11.98;4.93;;;5.70;99.90;;;;;;5022542;28;20029;-75
2022/10/11 03:43:34;;;;;;;7.50;3.50;;;5.60;99.90;;;;;;5022513;28;20057;-76
2022/10/11 03:45:59;;;;;;;9.10;2.97;;;5.50;99.90;;;;;;5022414;28;20087;-75
2022/10/11 03:48:25;;;;;;;8.25;3.53;;;5.70;99.90;;;;;;5019263;28;20051;-75
2022/10/11 03:50:51;;;;;;;11.63;3.90;;;5.80;99.90;;;;;;5006000;28;20026;-75
2022/10/11 03:53:16;;;;;;;11.00;4.75;;;5.80;99.90;;;;;;5000703;28;20491;-75
2022/10/11 03:55:42;;;;;;;11.05;4.28;;;5.60;99.90;;;;;;5006462;28;20477;-75
2022/10/11 03:58:08;;;;;;;13.15;5.05;;;5.60;99.90;;;;;;4990366;28;20037;-75
2022/10/11 04:00:33;;;;;;;9.88;5.10;;;5.50;99.90;;;;;;5022589;28;20026;-75
2022/10/11 04:02:59;;;;;;;8.68;3.50;;;5.60;99.90;;;;;;5006871;28;20041;-75
2022/10/11 04:05:24;;;;;;;7.72;4.47;;;5.60;99.90;;;;;;4990097;28;20433;-76
2022/10/11 04:07:50;;;;;;;23.80;5.50;;;5.50;99.90;;;;;;5022301;28;20037;-76
2022/10/11 04:10:16;;;;;;;9.43;3.90;;;5.20;99.90;;;;;;5023028;28;20029;-76
2022/10/11 04:12:41;;;;;;;16.52;5.07;;;5.10;99.90;;;;;;5022964;28;20026;-75
2022/10/11 04:15:07;;;;;;;9.60;4.20;;;5.10;99.90;;;;;;5023607;28;20377;-75
2022/10/11 04:17:33;;;;;;;17.90;4.55;;;5.10;99.90;;;;;;5023767;28;20223;-76
2022/10/11 04:19:58;;;;;;;10.07;4.38;;;5.10;99.90;;;;;;5014954;28;20248;-75
2022/10/11 04:22:24;;;;;;;9.60;4.97;;;5.10;99.90;;;;;;5021981;28;20431;-75
2022/10/11 04:24:49;;;;;;;11.38;5.22;;;5.20;99.90;;;;;;5022760;28;20090;-75
2022/10/11 04:27:15;;;;;;;5.95;3.05;;;5.20;99.90;;;;;;5026391;28;20030;-76
2022/10/11 04:29:40;;;;;;;10.60;5.00;;;5.10;99.90;;;;;;5005619;28;22178;-75
2022/10/11 04:32:06;;;;;;;8.30;4.45;;;5.30;99.90;;;;;;5009305;28;20105;-75
2022/10/11 04:34:31;;;;;;;9.90;4.40;;;5.30;99.90;;;;;;5010522;28;20502;-75
2022/10/11 04:36:57;;;;;;;10.93;4.00;;;5.30;99.90;;;;;;4994107;28;20025;-75
2022/10/11 04:39:22;;;;;;;12.05;4.57;;;5.20;99.90;;;;;;5026849;28;20477;-75
2022/10/11 04:41:48;;;;;;;10.50;4.22;;;5.10;99.90;;;;;;5010026;28;20030;-75
2022/10/11 04:44:13;;;;;;;6.38;3.17;;;4.90;99.90;;;;;;5027556;28;20034;-76
2022/10/11 04:46:39;;;;;;;6.07;3.55;;;5.10;99.90;;;;;;4993900;28;20029;-75
2022/10/11 04:49:05;;;;;;;12.02;4.03;;;5.20;99.90;;;;;;5027041;28;20026;-75
2022/10/11 04:51:32;;;;;;;9.40;4.22;;;5.10;99.90;;;;;;5026539;28;20033;-75
2022/10/11 04:53:58;;;;;;;7.32;4.35;;;5.00;99.90;;;;;;5010834;28;20041;-76
2022/10/11 04:56:23;;;;;;;6.10;3.92;;;4.80;99.90;;;;;;4993648;28;20518;-75
2022/10/11 04:58:52;;;;;;;7.03;4.25;;;4.80;99.90;;;;;;4994034;28;20386;-75
2022/10/11 05:01:18;;;;;;;13.02;5.93;;;4.80;99.90;;;;;;5009711;28;20053;-75
2022/10/11 05:03:44;;;;;;;14.15;7.68;;;4.80;99.90;;;;;;5024320;28;20143;-75
2022/10/11 05:06:09;;;;;;;24.10;13.15;;;4.70;99.90;;;;;;5025877;28;20517;-76
2022/10/11 05:08:35;;;;;;;18.92;9.52;;;4.70;99.90;;;;;;5027095;28;20037;-74
2022/10/11 05:11:05;;;;;;;11.15;7.10;;;4.60;99.90;;;;;;5010104;28;20045;-75
2022/10/11 05:13:31;;;;;;;9.38;4.80;;;4.50;99.90;;;;;;5025298;28;20453;-74
2022/10/11 05:15:56;;;;;;;13.70;5.07;;;4.70;99.90;;;;;;5012066;28;20083;-74
2022/10/11 05:18:22;;;;;;;16.02;6.60;;;4.80;99.90;;;;;;5011271;28;20048;-75
2022/10/11 05:20:48;;;;;;;12.15;6.35;;;4.70;99.90;;;;;;5024707;28;20041;-75
2022/10/11 05:23:14;;;;;;;14.50;6.53;;;4.70;99.90;;;;;;5007720;28;20040;-76
2022/10/11 05:25:39;;;;;;;11.48;5.05;;;4.50;99.90;;;;;;5009010;28;25592;-75
2022/10/11 05:28:05;;;;;;;7.07;3.83;;;4.60;99.90;;;;;;5025753;28;20116;-76
2022/10/11 05:30:30;;;;;;;9.27;4.60;;;4.70;99.90;;;;;;5024189;28;20029;-75
2022/10/11 05:32:56;;;;;;;12.57;4.43;;;4.70;99.90;;;;;;5024814;28;20393;-74
2022/10/11 05:35:21;;;;;;;12.32;5.43;;;4.60;99.90;;;;;;5024942;28;20033;-74
2022/10/11 05:37:47;;;;;;;10.40;6.18;;;4.90;99.90;;;;;;5025725;28;20029;-74
2022/10/11 05:40:12;;;;;;;11.50;5.47;;;4.90;99.90;;;;;;5009550;28;20210;-74
2022/10/11 05:42:38;;;;;;;8.82;3.60;;;4.70;99.90;;;;;;5025164;28;20268;-74
2022/10/11 05:45:05;;;;;;;8.10;4.40;;;4.70;99.90;;;;;;5009084;28;20041;-74
2022/10/11 05:47:30;;;;;;;14.95;4.72;;;4.80;99.90;;;;;;5028505;28;20042;-74
2022/10/11 05:49:56;;;;;;;8.75;3.67;;;4.70;99.90;;;;;;5026779;28;20141;-74
2022/10/11 05:52:21;;;;;;;9.60;3.88;;;4.70;99.90;;;;;;5029410;28;20080;-74
2022/10/11 05:54:47;;;;;;;12.50;6.88;;;4.80;99.90;;;;;;4992878;28;20029;-74
2022/10/11 05:57:13;;;;;;;13.38;5.63;;;4.70;99.90;;;;;;5007926;28;20037;-74
2022/10/11 05:59:38;;;;;;;16.65;6.00;;;4.60;99.90;;;;;;5024028;28;20556;-74
2022/10/11 06:02:04;;;;;;;8.90;4.55;;;4.50;99.90;;;;;;5024123;28;20041;-75
2022/10/11 06:04:30;;;;;;;8.27;4.18;;;4.50;99.90;;;;;;5025081;28;20036;-75
2022/10/11 06:06:55;;;;;;;15.57;5.85;;;4.50;99.90;;;;;;5007565;28;20129;-76
2022/10/11 06:09:21;;;;;;;10.75;4.47;;;4.50;99.90;;;;;;5008338;28;20136;-76
2022/10/11 06:11:46;;;;;;;10.70;3.97;;;4.60;99.90;;;;;;4990858;28;20508;-75
2022/10/11 06:14:12;;;;;;;10.45;4.55;;;4.60;99.90;;;;;;5006762;28;20029;-75
2022/10/11 06:16:37;;;;;;;13.85;4.30;;;4.70;99.90;;;;;;5023906;28;20456;-75
2022/10/11 06:19:03;;;;;;;10.20;5.93;;;4.90;99.90;;;;;;5007373;28;20030;-76
2022/10/11 06:21:28;;;;;;;11.90;5.72;;;4.90;99.90;;;;;;4990225;28;20128;-76
2022/10/11 06:23:54;;;;;;;12.77;4.25;;;4.80;99.90;;;;;;5004389;28;20645;-76
2022/10/11 06:26:20;;;;;;;13.73;4.80;;;4.90;99.90;;;;;;5026137;28;20025;-76
2022/10/11 06:28:45;;;;;;;12.45;4.47;;;5.00;99.90;;;;;;5022341;28;20029;-76
2022/10/11 06:31:11;;;;;;;11.52;5.65;;;5.00;99.90;;;;;;5006888;28;20610;-75
2022/10/11 06:33:36;;;;;;;10.15;3.85;;;5.00;99.90;;;;;;5023550;28;20029;-76
2022/10/11 06:36:04;;;;;;;15.07;5.63;;;5.00;99.90;;;;;;4990894;28;20501;-75
2022/10/11 06:38:30;;;;;;;9.07;4.97;;;5.30;99.90;;;;;;5005295;28;20481;-76
2022/10/11 06:40:56;;;;;;;10.63;4.70;;;5.30;99.90;;;;;;4989608;28;20115;-75
2022/10/11 06:43:21;;;;;;;18.20;6.97;;;5.40;99.90;;;;;;5009495;28;20158;-75
2022/10/11 06:45:47;;;;;;;15.00;5.43;;;5.30;99.90;;;;;;5023771;28;20174;-75
2022/10/11 06:48:13;;;;;;;19.75;6.93;;;5.20;99.90;;;;;;5023547;28;20171;-75
2022/10/11 06:50:38;;;;;;;11.25;4.53;;;5.40;99.90;;;;;;5022763;28;20501;-75
2022/10/11 06:53:05;;;;;;;16.27;6.65;;;5.40;99.90;;;;;;5006214;28;20041;-75
2022/10/11 06:55:31;;;;;;;13.25;7.63;;;5.30;99.90;;;;;;5005648;28;20211;-76
2022/10/11 06:57:56;;;;;;;16.00;7.22;;;5.30;99.90;;;;;;5005692;28;20124;-75
2022/10/11 07:00:22;;;;;;;10.35;5.22;;;5.40;99.90;;;;;;5001498;28;20028;-76
2022/10/11 07:02:48;;;;;;;12.38;6.97;;;5.50;99.90;;;;;;5023226;28;20643;-75
2022/10/11 07:05:14;;;;;;;13.98;7.72;;;5.60;99.90;;;;;;5006453;28;20499;-74
2022/10/11 07:07:40;;;;;;;15.02;7.53;;;5.60;99.90;;;;;;5005621;28;20045;-74
2022/10/11 07:10:06;;;;;;;19.95;8.93;;;5.60;99.90;;;;;;5005383;28;20091;-75
2022/10/11 07:12:31;;;;;;;12.38;6.60;;;5.70;99.90;;;;;;5022601;28;20555;-74
2022/10/11 07:14:57;;;;;;;12.43;5.15;;;5.90;99.90;;;;;;4989589;28;20037;-74
2022/10/11 07:17:22;;;;;;;9.80;6.03;;;6.20;99.90;;;;;;5022835;28;20121;-74
2022/10/11 07:19:48;;;;;;;8.60;5.35;;;6.30;99.90;;;;;;5006318;28;20373;-75
2022/10/11 07:22:13;;;;;;;8.45;4.68;;;6.50;99.90;;;;;;5022265;28;20463;-75
2022/10/11 07:24:39;;;;;;;12.10;4.85;;;6.60;99.90;;;;;;5023352;28;20037;-75
2022/10/11 07:27:04;;;;;;;10.32;6.03;;;6.70;99.90;;;;;;5007304;28;20087;-74
2022/10/11 07:29:30;;;;;;;8.95;4.82;;;6.80;99.90;;;;;;5022358;28;20582;-74
2022/10/11 07:31:55;;;;;;;11.98;4.53;;;6.90;99.90;;;;;;5001132;28;20057;-74
2022/10/11 07:34:21;;;;;;;13.93;6.45;;;7.00;99.90;;;;;;5004567;28;20428;-74
2022/10/11 07:36:47;;;;;;;8.10;4.68;;;7.00;99.90;;;;;;4988358;28;20065;-75
2022/10/11 07:39:13;;;;;;;13.93;5.80;;;7.10;99.90;;;;;;5006481;28;20713;-74
2022/10/11 07:41:38;;;;;;;16.75;7.78;;;7.20;99.90;;;;;;5027131;28;20515;-74
2022/10/11 07:44:04;;;;;;;10.52;5.13;;;7.30;99.90;;;;;;5009603;28;20036;-74
2022/10/11 07:46:30;;;;;;;16.52;8.88;;;7.50;99.90;;;;;;5005513;28;20030;-75
2022/10/11 07:48:55;;;;;;;9.40;5.53;;;7.40;99.90;;;;;;5002584;28;20385;-74
2022/10/11 07:51:21;;;;;;;19.90;9.63;;;7.70;99.90;;;;;;5006414;28;20108;-75
2022/10/11 07:53:49;;;;;;;19.98;10.43;;;7.90;99.90;;;;;;5021313;28;20034;-74
2022/10/11 07:56:19;;;;;;;11.63;5.15;;;7.90;99.90;;;;;;5022107;28;20068;-75
2022/10/11 07:58:49;;;;;;;26.73;11.32;;;7.90;99.90;;;;;;5005035;28;20029;-74
2022/10/11 08:01:14;;;;;;;19.75;11.05;;;7.90;99.90;;;;;;5005518;28;20041;-75
2022/10/11 08:03:40;;;;;;;22.05;11.13;;;8.10;99.90;;;;;;5005479;28;20425;-75
2022/10/11 08:06:07;;;;;;;23.98;12.00;;;8.20;99.90;;;;;;5024213;28;20416;-74
2022/10/11 08:08:32;;;;;;;24.83;11.82;;;8.30;99.90;;;;;;4994466;28;20405;-75
2022/10/11 08:10:58;;;;;;;8.90;5.75;;;8.40;99.90;;;;;;5028036;28;20037;-75
2022/10/11 08:13:24;;;;;;;19.08;8.57;;;8.50;99.90;;;;;;4996252;28;20040;-75
2022/10/11 08:15:49;;;;;;;16.92;5.78;;;8.60;99.90;;;;;;5029279;28;20588;-75
2022/10/11 08:18:15;;;;;;;11.68;6.03;;;8.90;99.90;;;;;;4994998;28;20505;-75
2022/10/11 08:20:40;;;;;;;12.25;7.78;;;9.10;99.90;;;;;;5011311;28;20100;-75
2022/10/11 08:23:06;;;;;;;10.35;5.13;;;9.30;99.90;;;;;;5012220;28;20033;-75
2022/10/11 08:25:39;;;;;;;8.63;4.28;;;9.50;99.90;;;;;;5012173;28;20473;-75
2022/10/11 08:28:04;;;;;;;11.23;5.43;;;9.60;99.90;;;;;;5010177;28;20041;-75
2022/10/11 08:30:30;;;;;;;13.95;6.47;;;9.80;99.90;;;;;;5028459;28;20029;-76
2022/10/11 08:32:55;;;;;;;21.65;8.65;;;9.90;99.90;;;;;;5015157;28;20041;-75
2022/10/11 08:35:21;;;;;;;18.25;9.23;;;10.10;99.90;;;;;;5011678;28;20034;-76
2022/10/11 08:37:46;;;;;;;19.10;8.63;;;10.20;99.90;;;;;;5011876;28;20041;-74
2022/10/11 08:40:16;;;;;;;7.53;4.57;;;10.20;99.90;;;;;;5011731;28;20034;-75
2022/10/11 08:42:47;;;;;;;15.75;6.18;;;10.40;99.90;;;;;;5012105;28;20079;-75
2022/10/11 08:45:38;;;;;;;11.85;5.95;;;10.40;99.90;;;;;;5011747;28;20041;-75
2022/10/11 08:48:17;;;;;;;22.25;9.23;;;10.50;99.90;;;;;;5012859;28;20038;-75
2022/10/11 08:50:45;;;;;;;9.02;4.30;;;10.50;99.90;;;;;;5012174;28;20029;-76
2022/10/11 08:53:33;;;;;;;15.07;6.10;;;10.80;99.90;;;;;;5024124;28;21432;-75
2022/10/11 08:56:00;;;;;;;18.33;7.97;;;11.30;99.90;;;;;;5021609;28;20067;-75
2022/10/11 08:58:49;;;;;;;24.73;8.52;;;11.20;99.90;;;;;;4995654;28;20033;-75
2022/10/11 09:01:20;;;;;;;15.40;4.95;;;11.40;99.90;;;;;;4995821;28;20405;-75
2022/10/11 09:03:46;;;;;;;9.32;4.03;;;11.50;99.90;;;;;;5012243;28;20529;-74
2022/10/11 09:06:33;;;;;;;20.88;6.50;;;12.20;99.90;;;;;;5015545;28;20038;-75
2022/10/11 09:09:22;;;;;;;9.15;4.25;;;12.30;99.90;;;;;;5016651;28;20127;-74
2022/10/11 09:12:25;;;;;;;8.43;3.53;;;12.30;99.90;;;;;;5016956;28;20025;-74
2022/10/11 09:15:21;;;;;;;12.38;4.88;;;12.50;99.90;;;;;;5016765;28;20090;-74
2022/10/11 09:17:50;;;;;;;9.52;4.03;;;12.90;99.90;;;;;;5013134;28;20033;-75
2022/10/11 09:20:30;;;;;;;14.00;4.05;;;12.90;99.90;;;;;;5008108;28;20091;-75
2022/10/11 09:23:20;;;;;;;10.32;3.72;;;13.20;99.90;;;;;;5007106;28;20034;-75
2022/10/11 09:25:50;;;;;;;10.60;3.53;;;13.50;99.90;;;;;;5025375;28;20041;-75
2022/10/11 09:28:19;;;;;;;13.02;4.57;;;13.60;99.90;;;;;;5005506;28;20040;-75
2022/10/11 09:30:49;;;;;;;9.65;3.20;;;14.00;99.90;;;;;;5024151;28;20536;-75
2022/10/11 09:33:32;;;;;;;8.77;3.28;;;14.30;99.90;;;;;;4991486;28;20037;-75
2022/10/11 09:35:57;;;;;;;11.20;3.47;;;14.10;99.90;;;;;;5006628;28;20033;-75
2022/10/11 09:38:59;;;;;;;11.93;3.65;;;14.50;99.90;;;;;;4990655;28;20103;-75
2022/10/11 09:41:51;;;;;;;9.50;3.35;;;14.40;99.90;;;;;;5021242;28;20041;-75
2022/10/11 09:44:24;;;;;;;17.40;3.35;;;14.90;99.90;;;;;;4997265;28;20044;-74
2022/10/11 09:46:50;;;;;;;8.38;2.78;;;14.60;99.90;;;;;;5005951;28;20029;-75
2022/10/11 09:49:17;;;;;;;11.55;3.03;;;14.50;99.90;;;;;;5022497;28;20076;-75
2022/10/11 09:51:49;;;;;;;8.93;2.40;;;15.10;99.90;;;;;;5005531;28;20064;-75
2022/10/11 09:54:15;;;;;;;8.23;2.50;;;15.20;99.90;;;;;;5008061;28;20049;-75
2022/10/11 09:56:41;;;;;;;18.52;2.80;;;15.00;99.90;;;;;;5007629;28;20470;-75
2022/10/11 09:59:28;;;;;;;8.88;2.00;;;14.20;99.90;;;;;;5007889;28;20037;-74
2022/10/11 10:02:12;;;;;;;14.82;2.17;;;14.50;99.90;;;;;;5023595;28;20496;-76
2022/10/11 10:04:59;;;;;;;16.95;1.90;;;14.60;99.90;;;;;;5023157;28;20065;-76
2022/10/11 10:07:25;;;;;;;15.57;2.53;;;14.40;99.90;;;;;;5021272;28;20065;-76
2022/10/11 10:09:51;;;;;;;11.80;2.15;;;14.10;99.90;;;;;;5024690;28;20057;-76
2022/10/11 10:12:21;;;;;;;11.38;2.33;;;13.50;99.90;;;;;;5026026;28;20299;-76
2022/10/11 10:15:06;;;;;;;12.90;2.90;;;15.30;99.90;;;;;;5007526;28;20121;-76
2022/10/11 10:17:32;;;;;;;10.65;2.60;;;14.90;99.90;;;;;;5005946;28;20064;-76
2022/10/11 10:19:59;;;;;;;11.45;2.13;;;14.20;99.90;;;;;;4990438;28;20037;-76
2022/10/11 10:22:27;;;;;;;10.82;2.20;;;13.80;99.90;;;;;;5023978;28;20342;-75
2022/10/11 10:24:53;;;;;;;16.67;3.75;;;13.60;99.90;;;;;;5007619;28;20038;-75
2022/10/11 10:27:21;;;;;;;16.08;2.70;;;13.60;99.90;;;;;;5006219;28;20026;-75
2022/10/11 10:29:59;;;;;;;6.25;1.23;;;13.60;99.90;;;;;;5022470;28;20549;-75
2022/10/11 10:32:28;;;;;;;7.55;2.67;;;14.90;99.90;;;;;;5023354;28;20045;-76
2022/10/11 10:35:02;;;;;;;11.75;2.65;;;15.60;99.90;;;;;;5023500;28;20041;-76
2022/10/11 10:37:31;;;;;;;6.60;1.60;;;15.80;99.90;;;;;;5026002;28;20026;-75
2022/10/11 10:40:09;;;;;;;6.82;1.88;;;16.50;99.90;;;;;;5007489;28;20108;-75
2022/10/11 10:42:34;;;;;;;6.45;1.75;;;16.80;99.90;;;;;;5007607;28;20409;-75
2022/10/11 10:45:00;;;;;;;9.60;2.60;;;17.00;99.90;;;;;;5007981;28;20556;-76
2022/10/11 10:47:47;;;;;;;10.25;1.85;;;16.90;99.90;;;;;;5003791;28;20553;-75
2022/10/11 10:50:20;;;;;;;7.45;1.70;;;17.20;99.90;;;;;;5026097;28;20065;-76
2022/10/11 10:52:53;;;;;;;7.93;1.50;;;17.70;99.90;;;;;;5024280;28;20033;-75
2022/10/11 10:55:42;;;;;;;9.68;3.00;;;17.80;99.90;;;;;;5021301;28;20052;-76
2022/10/11 10:58:38;;;;;;;16.75;2.17;;;16.40;99.90;;;;;;5009735;28;20057;-75
2022/10/11 11:01:20;;;;;;;11.27;2.27;;;15.50;99.90;;;;;;5024844;28;20041;-76
2022/10/11 11:03:56;;;;;;;9.52;1.67;;;15.10;99.90;;;;;;5023149;28;20055;-75
2022/10/11 11:06:26;;;;;;;;;;;14.90;99.90;;;;;;5024530;28;20041;-75
2022/10/11 11:09:10;;;;;;;10.77;1.92;;;14.90;99.90;;;;;;5023628;28;20024;-75
2022/10/11 11:11:48;;;;;;;12.93;1.92;;;14.90;99.90;;;;;;5023098;28;20037;-75
2022/10/11 11:14:38;;;;;;;9.45;1.83;;;15.00;99.90;;;;;;5001707;28;20041;-76
2022/10/11 11:17:21;;;;;;;10.57;1.73;;;15.00;99.90;;;;;;5025314;28;20697;-76
2022/10/11 11:20:02;;;;;;;10.88;2.33;;;15.80;99.90;;;;;;5023854;28;20033;-76
2022/10/11 11:23:06;;;;;;;8.57;1.77;;;15.40;99.90;;;;;;5005905;28;20029;-76
2022/10/11 11:25:39;;;;;;;10.38;2.50;;;15.90;99.90;;;;;;4999866;28;20061;-76
2022/10/11 11:28:25;;;;;;;6.82;1.50;;;16.40;99.90;;;;;;5023169;28;20562;-76
2022/10/11 11:30:56;;;;;;;;;;;16.60;99.90;;;;;;5024978;28;20377;-76
2022/10/11 11:33:29;;;;;;;9.38;1.67;;;16.30;99.90;;;;;;5023944;28;19909;-77
2022/10/11 11:35:55;;;;;;;7.28;1.67;;;16.30;99.90;;;;;;5022834;28;20071;-76
2022/10/11 11:38:28;;;;;;;7.57;2.05;;;17.60;99.90;;;;;;5006560;28;20485;-76
2022/10/11 11:40:56;;;;;;;7.55;1.88;;;17.50;99.90;;;;;;5019531;28;20640;-76
2022/10/11 11:43:24;;;;;;;13.82;2.60;;;16.60;99.90;;;;;;4990625;28;20171;-76
2022/10/11 11:45:53;;;;;;;15.73;2.30;;;16.50;99.90;;;;;;5022638;28;20021;-76
2022/10/11 11:48:23;;;;;;;8.85;2.30;;;16.30;99.90;;;;;;5021418;28;20030;-76
2022/10/11 11:51:17;;;;;;;8.88;2.33;;;17.00;99.90;;;;;;5007152;28;20113;-77
2022/10/11 11:53:49;;;;;;;9.25;2.67;;;17.30;99.90;;;;;;5021791;28;20548;-76
2022/10/11 11:56:24;;;;;;;13.60;2.88;;;16.60;99.90;;;;;;5005748;28;20469;-77
2022/10/11 11:59:09;;;;;;;7.43;2.00;;;16.30;99.90;;;;;;4327547;28;10000270;-78
2022/10/11 12:01:53;;;;;;;14.93;2.80;;;16.10;99.90;;;;;;4992724;28;20029;-77
2022/10/11 12:04:31;;;;;;;9.68;2.72;;;16.00;99.90;;;;;;5018156;28;20122;-78
2022/10/11 12:07:17;;;;;;;13.50;2.67;;;15.90;99.90;;;;;;4987229;28;20433;-77
2022/10/11 12:09:44;;;;;;;9.27;2.30;;;15.80;99.90;;;;;;5020169;28;20100;-78
2022/10/11 12:12:28;;;;;;;8.32;2.10;;;15.60;99.90;;;;;;5004347;28;20385;-77
2022/10/11 12:15:19;;;;;;;8.55;2.47;;;16.00;99.90;;;;;;5021082;28;20164;-77
2022/10/11 12:18:13;;;;;;;11.73;2.42;;;16.10;99.90;;;;;;5010795;28;20033;-77
2022/10/11 12:20:40;;;;;;;7.30;2.65;;;16.10;99.90;;;;;;5018844;28;20108;-78
2022/10/11 12:23:29;;;;;;;6.05;1.58;;;15.80;99.90;;;;;;4986941;28;20038;-77
2022/10/11 12:26:28;;;;;;;7.15;1.73;;;16.70;99.90;;;;;;5012735;28;20041;-78
2022/10/11 12:29:16;;;;;;;7.63;2.05;;;17.80;99.90;;;;;;5011265;28;20033;-77
2022/10/11 12:31:42;;;;;;;4.47;2.10;;;17.70;99.90;;;;;;5019593;28;20595;-77
2022/10/11 12:34:07;;;;;;;5.35;1.75;;;17.40;99.90;;;;;;5004051;28;20145;-77
2022/10/11 12:36:41;;;;;;;7.03;1.73;;;18.20;99.90;;;;;;5018721;28;20508;-78
2022/10/11 12:39:19;;;;;;;11.10;2.28;;;19.90;98.00;;;;;;5002598;28;20045;-78
2022/10/11 12:41:49;;;;;;;8.20;2.08;;;19.60;98.20;;;;;;5022160;28;20036;-78
2022/10/11 12:44:17;;;;;;;5.97;1.60;;;19.60;97.00;;;;;;5022873;28;20072;-78
2022/10/11 12:46:54;;;;;;;5.97;1.90;;;19.80;97.40;;;;;;5018378;28;20190;-78
2022/10/11 12:49:43;;;;;;;5.60;2.05;;;19.00;99.90;;;;;;5027089;28;20496;-78
2022/10/11 12:52:26;;;;;;;9.35;1.90;;;18.30;99.90;;;;;;5020988;28;20393;-78
2022/10/11 12:55:01;;;;;;;13.70;2.33;;;18.20;99.90;;;;;;5026069;28;20103;-78
2022/10/11 12:57:54;;;;;;;7.72;1.60;;;18.30;99.90;;;;;;5008619;28;20113;-78
2022/10/11 13:00:26;;;;;;;14.38;2.40;;;17.90;99.90;;;;;;5010097;28;20481;-78
2022/10/11 13:02:52;;;;;;;13.35;3.00;;;17.80;99.90;;;;;;5012835;28;20420;-77
2022/10/11 13:05:23;;;;;;;9.02;2.30;;;17.80;99.90;;;;;;5026444;28;20045;-78